DUB weather

Dublin Airport
Dublin, County Dublin, Ireland

Public forecast

Using degrees Celsius for public forecast. Weather courtesy of forecast.io.

METAR (pilot weather report)

Retrieved 2019/04/21 11:30 UTC (12 minutes ago):

EIDW 211130Z 12006KT 080V170 CAVOK 20/07 Q1017 NOSIG

TAF (pilot weather forecast)

Retrieved 2019/04/21 06:11 UTC (6 hours ago):

TAF EIDW 210500Z 2106/2206 25005KT CAVOK BECMG 2109/2111 14007KT BECMG 2112/2114 20013KT BECMG 2122/2201 15009KT PROB30 TEMPO 2200/2206 0400 FG BKN002